Aérodrome :
LOGIN :

S'inscrire | Disclaimer

   EN    FR    IT 

 










Légende :    VFR   VFR Marginal   IFR   IFR Intensif   IFR Très Intensif
Visi : 
Plafond : 
>= 8 km
>= 3000ft
5 à 8 km
1000 à 3000 ft
1500m à 5 km
500 à 1000 ft
800 à 1500m
200 à 500 ft
< 800m
< 200 ft
Symboles :   Orages  Brouillard  Fortes neiges  Fortes précipitations  Vent > 20 kt
SIGMETs :   Divers  Orages  Givrage  Turbulence  Onde Orograph.  Cendres Volcan.






- Altitude de l'aérodrome : 33 ft
- Code IATA : MHZ


EGUN - RAF Mildenhall

DERNIER METAR :
  • 260300Z 16008KT 5000 BR OVC021 07/05 A2989 RMK SLPNO WND DATA ESTMD ALTSG ESTMD RVRNO $

METARs EXPIRÉS :
  • 260200Z 15007KT 5000 BR BKN006 06/05 A2991 RMK SLPNO WND DATA ESTMD ALTSG ESTMD RVRNO $
  • 260056Z 18003KT 5000 BR FEW004 OVC006 06/05 A2993 RMK SLPNO WND DATA ESTMD ALTSG ESTMD RVRNO $

TAF AMD TAF EGUN
Valide du 26 à 00h jusqu'au 27 à 02h UTC


260030Z 2600/2702 18012KT 6000 BR OVC006 QNH2983INS
BECMG 2608/2609 18009KT 9999 NSW OVC010 QNH2977INS
BECMG 2611/2612 20015G25KT 8000 -SHRA OVC010 QNH2969INS
BECMG 2617/2618 21012KT 9999 NSW OVC015 QNH2969INS TX09/2611Z TN05/2600Z



MET'MAP, la Météo Aéronautique d'un coup d'oeil ! - Copyright ORBIFLY Décembre 2007 - Disclaimer

ORBIFLY MET'MAP TEAM :

Programmation & Développement : Alexandra Zaïnal
Sur une idée originale de : Baudouin d'Aumeries
Assistance à la programmation : Marc-Olivier Méhu
Soutien technique & logistique : Manuel Goepfert

Contact : metmap@orbifly.com




SOURCES & CREDITS :

   NOAA